createdAt,value
2023-01-30T19:19:24.410Z,101170.37
2023-01-30T19:20:25.756Z,101168.81
2023-01-30T19:21:24.254Z,101172.96
2023-01-30T19:22:23.256Z,101171.57
2023-01-30T19:23:23.161Z,101169.68
2023-01-30T19:24:23.215Z,101168.7
2023-01-30T19:25:23.327Z,101170.43
2023-01-30T19:26:23.072Z,101166.62
2023-01-30T19:27:22.987Z,101172.35
2023-01-30T19:28:37.498Z,101169.18
2023-01-30T20:39:39.405Z,101157.95
2023-01-30T20:40:39.371Z,101159.01
2023-01-30T20:41:39.277Z,101153.37
2023-01-30T20:42:39.285Z,101159.42
2023-01-30T20:43:39.255Z,101159.93
2023-01-30T20:44:39.322Z,101155.7
2023-01-30T20:45:39.223Z,101156.67
2023-01-30T20:46:39.191Z,101161.06
2023-01-30T20:47:39.239Z,101155.82
2023-01-30T20:48:40.171Z,101155.31
2023-01-30T20:49:39.202Z,101151.68
2023-01-30T20:50:39.248Z,101154.7
2023-01-30T20:51:39.241Z,101155.46
2023-01-30T20:52:39.180Z,101153.28
2023-01-30T20:53:39.166Z,101156.15
2023-01-30T20:54:39.102Z,101154.76
2023-01-30T20:55:39.199Z,101161.73
2023-01-30T20:56:39.174Z,101161.32
2023-01-30T20:57:39.155Z,101160.08
2023-01-30T20:58:39.217Z,101157.57
2023-01-30T20:59:40.067Z,101159.78
2023-01-30T21:00:39.080Z,101160.19
2023-01-30T21:01:40.092Z,101160.61
2023-01-30T21:02:39.000Z,101156.7
2023-01-30T21:03:39.092Z,101158.88
2023-01-30T21:04:39.080Z,101162.4
2023-01-30T21:05:38.996Z,101161.87
2023-01-30T21:06:43.451Z,101162.17
2023-01-30T21:07:39.973Z,101158.36
2023-01-30T21:08:38.988Z,101156.68
2023-01-30T21:09:39.081Z,101155.82
2023-01-30T21:10:40.028Z,101156.96
2023-01-30T21:11:39.005Z,101157.73
2023-01-30T21:12:38.915Z,101157.21
2023-01-30T21:13:39.025Z,101153.11
2023-01-30T21:14:38.998Z,101155.04
2023-01-30T21:15:38.929Z,101154.87
2023-01-30T21:16:38.927Z,101157.95
2023-01-30T21:17:38.879Z,101146.68
2023-01-30T21:18:38.846Z,101159.52
2023-01-30T21:19:41.909Z,101155.07
2023-01-30T21:20:39.876Z,101152.63
2023-01-30T21:21:39.795Z,101152.45
2023-01-30T21:22:39.826Z,101147.35
2023-01-30T21:23:38.847Z,101152.54
2023-01-30T21:24:38.878Z,101152.2
2023-01-30T21:25:38.770Z,101152.18
2023-01-30T21:26:38.887Z,101152.98
2023-01-30T21:27:41.008Z,101148.2
2023-01-30T21:28:38.728Z,101140.37
2023-01-30T21:29:38.752Z,101135.16
2023-01-30T21:30:38.785Z,101137.56
2023-01-30T21:31:39.869Z,101134.41
2023-01-30T21:32:38.683Z,101130.82
2023-01-30T21:33:38.676Z,101128.68
2023-01-30T21:34:38.697Z,101131.1
2023-01-30T21:35:38.787Z,101127.6
2023-01-30T21:36:38.653Z,101117
2023-01-30T21:37:38.634Z,101121.58
2023-01-30T21:38:38.690Z,101117.01
2023-01-30T21:39:38.594Z,101117.13
2023-01-30T21:40:38.623Z,101117.78
2023-01-30T21:41:38.578Z,101115.64
2023-01-30T21:42:38.659Z,101114.3
2023-01-30T21:43:39.671Z,101116.89
2023-01-30T21:44:38.644Z,101119.67
2023-01-30T21:45:38.624Z,101118.82
2023-01-30T21:46:38.608Z,101113.44
2023-01-30T21:47:39.508Z,101114.23
2023-01-30T21:48:38.548Z,101115.38
2023-01-30T21:49:38.496Z,101113.56
2023-01-30T21:50:39.481Z,101113.37
2023-01-30T21:51:38.561Z,101111.09
2023-01-30T21:52:38.534Z,101111.42
2023-01-30T21:53:38.452Z,101114.78
2023-01-30T21:54:38.540Z,101107.5
2023-01-30T21:55:38.547Z,101106.95
2023-01-30T21:56:38.428Z,101107.45
2023-01-30T21:57:38.434Z,101111.36
2023-01-30T21:58:38.409Z,101108.43
2023-01-30T21:59:38.449Z,101109.68
2023-01-30T22:00:38.491Z,101107.89
2023-01-30T22:01:38.386Z,101116.03
2023-01-30T22:02:38.386Z,101115.7
2023-01-30T22:03:38.410Z,101108.71
2023-01-30T22:04:38.381Z,101105.71
2023-01-30T22:05:38.464Z,101104.9
2023-01-30T22:06:38.388Z,101105.55
2023-01-30T22:07:38.287Z,101105.89
2023-01-30T22:08:38.305Z,101110.43
2023-01-30T22:09:38.243Z,101113.83
2023-01-30T22:10:38.266Z,101105.82
2023-01-30T22:11:38.275Z,101105.01
2023-01-30T22:12:38.301Z,101099.78
2023-01-30T22:13:38.243Z,101097.18
2023-01-30T22:14:38.316Z,101096.69
2023-01-30T22:15:38.206Z,101100.57
2023-01-30T22:16:38.213Z,101100.42
2023-01-30T22:17:38.177Z,101101.89
2023-01-30T22:18:38.196Z,101097
2023-01-30T22:19:39.205Z,101092.88
2023-01-30T22:20:38.160Z,101092.07
2023-01-30T22:21:38.169Z,101097.92
2023-01-30T22:22:38.202Z,101097.59
2023-01-30T22:23:38.145Z,101099.71
2023-01-30T22:24:38.152Z,101101.35
2023-01-30T22:25:38.140Z,101100.04
2023-01-30T22:26:39.104Z,101102.17
2023-01-30T22:27:38.063Z,101099.06
2023-01-30T22:28:38.071Z,101102.3
2023-01-30T22:29:38.101Z,101102.92
2023-01-30T22:30:38.105Z,101098.51
2023-01-30T22:31:38.048Z,101104.89
2023-01-30T22:32:38.014Z,101100.96
2023-01-30T22:33:38.991Z,101101.13
2023-01-30T22:34:38.967Z,101103.58
2023-01-30T22:35:37.982Z,101098.52
2023-01-30T22:36:37.939Z,101097.54
2023-01-30T22:37:38.000Z,101093.46
2023-01-30T22:38:37.976Z,101097.87
2023-01-30T22:39:37.969Z,101087.9
2023-01-30T22:40:37.906Z,101088.89
2023-01-30T22:41:38.020Z,101089.05
2023-01-30T22:42:37.971Z,101082.19
2023-01-30T22:43:37.955Z,101080.89
2023-01-30T22:44:37.842Z,101084.32
2023-01-30T22:45:37.880Z,101085.73
2023-01-30T22:46:38.017Z,101083.47
2023-01-30T22:47:37.853Z,101080.85
2023-01-30T22:48:37.862Z,101083.64
2023-01-30T22:49:37.814Z,101082.79
2023-01-30T22:50:37.888Z,101081.51
2023-01-30T22:51:37.942Z,101086.21
2023-01-30T22:52:37.777Z,101084.42
2023-01-30T22:53:37.876Z,101083.12
2023-01-30T22:54:37.765Z,101087.37
2023-01-30T22:55:37.746Z,101084.26
2023-01-30T22:56:37.807Z,101082.92
2023-01-30T22:57:37.701Z,101082.64
2023-01-30T22:58:37.781Z,101077.89
2023-01-30T22:59:37.754Z,101078.87
2023-01-30T23:00:37.741Z,101077.07
2023-01-30T23:01:37.671Z,101076.56
2023-01-30T23:02:37.759Z,101072.67
2023-01-30T23:03:37.709Z,101071.17
2023-01-30T23:04:38.706Z,101069.25
2023-01-30T23:05:37.636Z,101072.48
2023-01-30T23:06:37.700Z,101067.57
2023-01-30T23:07:37.719Z,101075.58
2023-01-30T23:08:37.715Z,101068.23
2023-01-30T23:09:37.587Z,101069.67
2023-01-30T23:10:37.584Z,101070.82
2023-01-30T23:11:37.568Z,101064.64
2023-01-30T23:12:37.527Z,101062.19
2023-01-30T23:13:37.597Z,101067.9
2023-01-30T23:14:37.524Z,101060.23
2023-01-30T23:15:37.531Z,101056.31
2023-01-30T23:16:37.460Z,101061.67
2023-01-30T23:17:37.508Z,101064.31
2023-01-30T23:18:37.522Z,101060.36
2023-01-30T23:19:37.540Z,101061.53
2023-01-30T23:20:37.525Z,101063.82
2023-01-30T23:21:37.436Z,101059.09
2023-01-30T23:22:37.419Z,101065.13
2023-01-30T23:23:37.435Z,101061.37
2023-01-30T23:24:37.406Z,101060.59
2023-01-30T23:25:37.387Z,101059.6
2023-01-30T23:26:37.512Z,101055.66
2023-01-30T23:27:37.376Z,101054.87
2023-01-30T23:28:37.369Z,101054.21
2023-01-30T23:29:37.389Z,101053.07
2023-01-30T23:30:37.315Z,101055.19
2023-01-30T23:31:37.400Z,101055.03
2023-01-30T23:32:37.475Z,101055.42
2023-01-30T23:33:37.313Z,101058.52
2023-01-30T23:34:37.267Z,101056.71
2023-01-30T23:35:37.333Z,101053.62
2023-01-30T23:36:37.295Z,101051.17
2023-01-30T23:37:37.450Z,101050.35
2023-01-30T23:38:37.311Z,101049.21
2023-01-30T23:39:37.200Z,101051
2023-01-30T23:40:37.211Z,101049.37
2023-01-30T23:41:37.198Z,101042.25
2023-01-30T23:42:37.289Z,101045.81
2023-01-30T23:43:37.180Z,101044.2
2023-01-30T23:44:37.185Z,101042.73
2023-01-30T23:45:37.203Z,101040.28
2023-01-30T23:46:37.275Z,101043.39
2023-01-30T23:47:37.243Z,101041.42
2023-01-30T23:48:37.192Z,101039.95
2023-01-30T23:49:37.218Z,101039.95
2023-01-30T23:50:37.130Z,101044.36
2023-01-30T23:51:37.119Z,101040.93
2023-01-30T23:52:37.079Z,101040.12
2023-01-30T23:53:37.056Z,101047.2
2023-01-30T23:54:37.071Z,101044.42
2023-01-30T23:55:37.050Z,101056.34
2023-01-30T23:56:37.138Z,101057.15
2023-01-30T23:57:37.056Z,101059.11
2023-01-30T23:58:37.029Z,101059.28
2023-01-30T23:59:37.026Z,101063.52
